Time;durP1;ratioP1;P1;durP2;ratioP2;P2;SDS_P1;SDS_P2;PMS_P1;PMS_P2;Temp;Humidity;BMP_temperature;BMP_pressure;BME280_temperature;BME280_humidity;BME280_pressure;Samples;Min_cycle;Max_cycle;Signal;HPM_P1;HPM_P2
2022/06/28 00:01:58;;;;;;;;;;;;;;;29.19;34.66;100412.12;5370899;32;35126;-90
2022/06/28 00:05:00;;;;;;;;;;;;;;;28.98;34.69;100407.34;5382089;32;36386;-89
2022/06/28 00:08:03;;;;;;;;;;;;;;;29.01;34.81;100410.56;5370440;32;34729;-89
2022/06/28 00:11:05;;;;;;;;;;;;;;;28.19;35.95;100411.88;5366399;32;34068;-82
2022/06/28 00:16:04;;;;;;;;;;;;;;;27.69;37.04;100400.31;5372792;32;44611;-88
2022/06/28 00:17:30;;;;;;;;;;;;;;;27.32;38.19;100421.56;5361325;32;35754;-90
2022/06/28 00:20:33;;;;;;;;;;;;;;;28.64;35.86;100413.94;5387310;32;34648;-75
2022/06/28 00:23:35;;;;;;;;;;;;;;;28.97;35.32;100408.38;5374375;32;36471;-83
2022/06/28 00:26:37;;;;;;;;;;;;;;;29.10;34.84;100414.88;5379338;32;47183;-75
2022/06/28 00:29:39;;;;;;;;;;;;;;;28.98;35.31;100405.50;5368894;32;35855;-75
2022/06/28 00:32:40;;;;;;;;;;;;;;;29.12;35.01;100412.00;5378028;32;34356;-75
2022/06/28 00:35:43;;;;;;;;;;;;;;;28.49;36.26;100407.59;5380575;32;35306;-75
2022/06/28 00:38:45;;;;;;;;;;;;;;;27.45;39.79;100405.72;5369895;32;34971;-76
2022/06/28 00:41:47;;;;;;;;;;;;;;;27.75;38.55;100407.75;5382103;32;34862;-90
2022/06/28 00:44:50;;;;;;;;;;;;;;;27.95;38.35;100408.25;5366123;32;34536;-77
2022/06/28 00:47:52;;;;;;;;;;;;;;;28.52;37.39;100410.78;5374918;32;35325;-77
2022/06/28 00:50:54;;;;;;;;;;;;;;;27.14;40.53;100424.41;5372312;32;34959;-82
2022/06/28 00:53:57;;;;;;;;;;;;;;;27.43;40.62;100413.97;5370335;32;33970;-91
2022/06/28 00:56:59;;;;;;;;;;;;;;;28.24;38.46;100423.84;5382538;32;35237;-74
2022/06/28 01:00:01;;;;;;;;;;;;;;;27.64;39.94;100426.13;5380947;32;34974;-90
2022/06/28 01:03:05;;;;;;;;;;;;;;;27.12;41.14;100426.44;5383200;32;35292;-75
2022/06/28 01:06:08;;;;;;;;;;;;;;;26.86;42.59;100427.37;5363137;32;44646;-90
2022/06/28 01:09:10;;;;;;;;;;;;;;;26.94;42.56;100432.78;5371994;32;34248;-91
2022/06/28 01:12:12;;;;;;;;;;;;;;;26.83;42.38;100432.22;5381712;32;35433;-76
2022/06/28 01:15:14;;;;;;;;;;;;;;;27.59;40.73;100415.00;5346769;32;35278;-75
2022/06/28 01:18:16;;;;;;;;;;;;;;;28.24;39.42;100429.25;5382873;32;35789;-76
2022/06/28 01:21:18;;;;;;;;;;;;;;;28.30;39.09;100441.25;5369747;32;34750;-74
2022/06/28 01:24:20;;;;;;;;;;;;;;;26.27;44.10;100447.94;5384908;32;35316;-75
2022/06/28 01:27:23;;;;;;;;;;;;;;;26.65;43.43;100437.72;5368095;32;34724;-84
2022/06/28 01:30:25;;;;;;;;;;;;;;;26.32;44.08;100440.22;5372866;32;36031;-91
2022/06/28 01:33:27;;;;;;;;;;;;;;;26.39;44.21;100441.28;5382728;32;35062;-76
2022/06/28 01:36:29;;;;;;;;;;;;;;;26.85;42.72;100438.28;5365704;32;36757;-75
2022/06/28 01:39:31;;;;;;;;;;;;;;;27.02;42.50;100431.09;5380924;32;34564;-91
2022/06/28 01:42:33;;;;;;;;;;;;;;;27.04;42.33;100421.81;5372857;32;36918;-91
2022/06/28 01:45:36;;;;;;;;;;;;;;;26.21;44.53;100437.81;5391305;32;35394;-91
2022/06/28 01:48:37;;;;;;;;;;;;;;;26.10;44.42;100430.84;5369597;32;45130;-74
2022/06/28 01:51:39;;;;;;;;;;;;;;;26.17;44.27;100431.06;5376932;32;34925;-88
2022/06/28 01:54:41;;;;;;;;;;;;;;;26.15;44.12;100428.53;5380122;32;35691;-74
2022/06/28 01:57:44;;;;;;;;;;;;;;;26.02;44.45;100429.94;5372340;32;34391;-75
2022/06/28 02:00:46;;;;;;;;;;;;;;;25.88;44.67;100429.53;5390227;32;34872;-90
2022/06/28 02:03:49;;;;;;;;;;;;;;;26.20;43.66;100434.28;5369670;32;35355;-91
2022/06/28 02:06:51;;;;;;;;;;;;;;;26.38;43.36;100452.22;5390679;32;34685;-92
2022/06/28 02:09:53;;;;;;;;;;;;;;;25.82;44.59;100453.53;5366339;32;35172;-94
2022/06/28 02:12:55;;;;;;;;;;;;;;;25.82;44.51;100454.37;5380035;32;35782;-84
2022/06/28 02:15:57;;;;;;;;;;;;;;;26.04;44.07;100454.88;5357617;32;35477;-75
2022/06/28 02:18:59;;;;;;;;;;;;;;;26.20;43.35;100452.28;5367642;32;35239;-87
2022/06/28 02:22:01;;;;;;;;;;;;;;;26.32;42.66;100445.62;5382565;32;34999;-74
2022/06/28 02:25:03;;;;;;;;;;;;;;;26.25;43.00;100454.50;5368777;32;37263;-74
2022/06/28 02:28:04;;;;;;;;;;;;;;;26.07;43.36;100455.41;5386855;32;35173;-87
2022/06/28 02:31:10;;;;;;;;;;;;;;;24.96;45.99;100458.56;5370764;32;35204;-76
2022/06/28 02:40:21;;;;;;;;;;;;;;;25.45;44.97;100448.34;5364753;32;45083;-76
2022/06/28 02:40:54;;;;;;;;;;;;;;;25.17;45.75;100432.25;5370025;32;34909;-89
2022/06/28 02:43:56;;;;;;;;;;;;;;;25.52;44.82;100431.41;5384145;32;36495;-92
2022/06/28 02:46:58;;;;;;;;;;;;;;;26.15;43.38;100451.94;5375437;32;36004;-74
2022/06/28 02:50:00;;;;;;;;;;;;;;;25.50;44.77;100454.91;5372384;32;34202;-93
2022/06/28 02:53:02;;;;;;;;;;;;;;;25.55;44.27;100457.16;5387671;32;34566;-84
2022/06/28 02:56:04;;;;;;;;;;;;;;;25.25;45.41;100461.09;5367571;32;34658;-74
2022/06/28 02:59:06;;;;;;;;;;;;;;;25.87;43.70;100457.44;5384072;32;34652;-74
2022/06/28 03:02:08;;;;;;;;;;;;;;;25.97;43.27;100459.22;5372520;32;44267;-90
2022/06/28 03:05:11;;;;;;;;;;;;;;;25.49;44.20;100442.47;5383779;32;34891;-74
2022/06/28 03:08:12;;;;;;;;;;;;;;;25.33;44.59;100453.09;5370007;32;34291;-74
2022/06/28 03:11:14;;;;;;;;;;;;;;;25.28;44.59;100453.56;5368487;32;35302;-92
2022/06/28 03:14:16;;;;;;;;;;;;;;;25.21;44.82;100449.78;5373687;32;35041;-87
2022/06/28 03:17:18;;;;;;;;;;;;;;;25.97;42.92;100445.75;5361304;32;35390;-89
2022/06/28 03:20:20;;;;;;;;;;;;;;;25.85;43.03;100455.94;5379475;32;34931;-76
2022/06/28 03:23:22;;;;;;;;;;;;;;;26.16;42.32;100457.16;5362476;32;34808;-84
2022/06/28 03:26:24;;;;;;;;;;;;;;;26.06;42.49;100458.25;5384301;32;35160;-93
2022/06/28 03:29:27;;;;;;;;;;;;;;;25.80;43.00;100467.16;5370058;32;36651;-75
2022/06/28 03:32:28;;;;;;;;;;;;;;;25.50;43.53;100472.91;5370936;32;35676;-90
2022/06/28 03:35:30;;;;;;;;;;;;;;;25.39;43.78;100477.53;5384308;32;36363;-90
2022/06/28 03:38:32;;;;;;;;;;;;;;;25.22;44.03;100486.44;5367817;32;34630;-89
2022/06/28 03:41:34;;;;;;;;;;;;;;;26.03;42.39;100501.69;5389800;32;34756;-93
2022/06/28 03:44:36;;;;;;;;;;;;;;;25.70;42.71;100522.91;5372877;32;35076;-93
2022/06/28 03:47:38;;;;;;;;;;;;;;;25.94;42.09;100524.97;5378682;32;45180;-76
2022/06/28 03:50:40;;;;;;;;;;;;;;;26.46;40.80;100544.75;5369745;32;35267;-76
2022/06/28 03:53:42;;;;;;;;;;;;;;;26.18;41.60;100556.66;5376483;32;34937;-75
2022/06/28 03:56:44;;;;;;;;;;;;;;;25.92;42.10;100567.38;5386122;32;33790;-92
2022/06/28 03:59:46;;;;;;;;;;;;;;;26.28;41.22;100576.28;5368818;32;34103;-75
2022/06/28 04:02:47;;;;;;;;;;;;;;;26.61;40.50;100574.69;5382932;32;34702;-76
2022/06/28 04:05:49;;;;;;;;;;;;;;;26.42;40.59;100574.91;5363438;32;34416;-75
2022/06/28 04:08:51;;;;;;;;;;;;;;;26.04;41.41;100570.69;5384373;32;35479;-75
2022/06/28 04:11:53;;;;;;;;;;;;;;;26.18;40.88;100564.75;5365795;32;35899;-74
2022/06/28 04:14:55;;;;;;;;;;;;;;;26.31;40.71;100558.94;5349246;32;34711;-82
2022/06/28 04:17:57;;;;;;;;;;;;;;;26.06;41.24;100569.53;5386675;32;35828;-88
2022/06/28 04:20:59;;;;;;;;;;;;;;;26.54;40.16;100565.53;5363743;32;34699;-90
2022/06/28 04:24:01;;;;;;;;;;;;;;;27.04;39.18;100559.37;5382165;32;34309;-75
2022/06/28 04:27:03;;;;;;;;;;;;;;;27.29;38.70;100564.91;5364735;32;34783;-83
2022/06/28 04:30:06;;;;;;;;;;;;;;;27.20;38.80;100570.28;5381194;32;34341;-73
2022/06/28 04:33:08;;;;;;;;;;;;;;;27.71;38.03;100562.19;5367910;32;44892;-74
2022/06/28 04:36:09;;;;;;;;;;;;;;;28.46;36.48;100564.72;5366551;32;34348;-75
2022/06/28 04:39:11;;;;;;;;;;;;;;;28.24;37.15;100548.16;5377964;32;35077;-90
2022/06/28 04:42:19;;;;;;;;;;;;;;;28.67;36.16;100548.81;5367208;32;35955;-84
2022/06/28 04:45:21;;;;;;;;;;;;;;;30.17;33.48;100547.66;5382095;32;35288;-75
2022/06/28 04:48:23;;;;;;;;;;;;;;;28.56;36.53;100568.94;5362347;32;34547;-75
2022/06/28 04:51:25;;;;;;;;;;;;;;;30.00;34.13;100563.16;5383498;32;34726;-91
2022/06/28 04:54:27;;;;;;;;;;;;;;;31.07;31.98;100561.12;5369227;32;35062;-75
2022/06/28 04:57:29;;;;;;;;;;;;;;;31.67;31.17;100578.97;5362773;32;34770;-91
2022/06/28 05:00:31;;;;;;;;;;;;;;;31.31;30.94;100608.03;5383669;32;35439;-75
2022/06/28 05:03:53;;;;;;;;;;;;;;;30.70;31.81;100635.31;5361146;32;34576;-72
2022/06/28 05:06:55;;;;;;;;;;;;;;;28.40;35.35;100630.28;5384417;32;34385;-67
2022/06/28 05:09:57;;;;;;;;;;;;;;;28.71;34.92;100622.31;5356877;32;34641;-80
2022/06/28 05:12:59;;;;;;;;;;;;;;;28.76;35.18;100628.03;5364737;32;35660;-86
2022/06/28 05:16:01;;;;;;;;;;;;;;;28.35;35.99;100640.78;5352711;32;34537;-81
2022/06/28 05:19:03;;;;;;;;;;;;;;;28.80;35.16;100656.44;5356984;32;34440;-81
2022/06/28 05:22:08;;;;;;;;;;;;;;;27.77;37.25;100658.72;5374579;32;34209;-82
2022/06/28 05:25:12;;;;;;;;;;;;;;;28.86;35.16;100636.81;5361787;32;44720;-67
2022/06/28 05:28:14;;;;;;;;;;;;;;;29.12;34.74;100651.00;5371896;32;34654;-69
2022/06/28 05:31:16;;;;;;;;;;;;;;;28.89;35.29;100663.53;5362931;32;35461;-82
2022/06/28 05:34:18;;;;;;;;;;;;;;;29.16;34.94;100683.09;5364505;32;36662;-69
2022/06/28 05:37:20;;;;;;;;;;;;;;;28.58;36.61;100710.19;5373100;32;34538;-74
2022/06/28 05:40:22;;;;;;;;;;;;;;;28.25;39.05;100690.38;5359383;32;34237;-70
2022/06/28 05:43:24;;;;;;;;;;;;;;;27.69;41.19;100672.19;5376453;32;34110;-74
2022/06/28 05:46:26;;;;;;;;;;;;;;;27.34;43.04;100690.25;5362379;32;34489;-65
2022/06/28 05:49:28;;;;;;;;;;;;;;;27.00;44.46;100693.75;5370270;32;34396;-69
2022/06/28 05:52:30;;;;;;;;;;;;;;;27.05;45.33;100704.09;5361100;32;35474;-72
2022/06/28 05:55:32;;;;;;;;;;;;;;;26.20;48.04;100684.78;5362222;32;35449;-65
2022/06/28 05:58:34;;;;;;;;;;;;;;;26.55;49.94;100640.00;5374121;32;34331;-69
2022/06/28 06:01:39;;;;;;;;;;;;;;;26.29;53.93;100590.59;5354587;32;46355;-67
2022/06/28 06:04:42;;;;;;;;;;;;;;;26.37;56.04;100577.19;5361098;32;33615;-68
2022/06/28 06:07:44;;;;;;;;;;;;;;;26.80;51.93;100573.63;5358819;32;35087;-79
2022/06/28 06:10:46;;;;;;;;;;;;;;;26.09;54.94;100550.38;5371515;32;34772;-79
2022/06/28 06:13:48;;;;;;;;;;;;;;;26.17;53.93;100511.87;5354810;32;34564;-67
2022/06/28 06:16:53;;;;;;;;;;;;;;;25.39;55.63;100490.16;5345105;32;34425;-68
2022/06/28 06:19:55;;;;;;;;;;;;;;;24.98;59.79;100483.44;5375323;32;34474;-68
2022/06/28 06:22:57;;;;;;;;;;;;;;;26.28;52.44;100510.78;5362218;32;35067;-69
2022/06/28 06:25:59;;;;;;;;;;;;;;;26.94;51.19;100539.81;5376450;32;34140;-68
2022/06/28 06:29:01;;;;;;;;;;;;;;;25.72;58.04;100541.59;5360579;32;34263;-68
2022/06/28 06:32:03;;;;;;;;;;;;;;;26.61;54.17;100563.06;5373894;32;34317;-74
2022/06/28 06:35:05;;;;;;;;;;;;;;;25.07;63.05;100522.91;5364474;32;34127;-69
2022/06/28 06:38:07;;;;;;;;;;;;;;;26.35;56.04;100544.16;5364086;32;43700;-71
2022/06/28 06:41:09;;;;;;;;;;;;;;;24.75;63.27;100555.59;5380387;32;34184;-71
2022/06/28 06:44:11;;;;;;;;;;;;;;;24.88;61.57;100563.31;5359082;32;32970;-72
2022/06/28 06:47:13;;;;;;;;;;;;;;;24.65;64.41;100523.34;5379558;32;37417;-68
2022/06/28 06:50:15;;;;;;;;;;;;;;;25.93;59.02;100559.16;5364598;32;34222;-75
2022/06/28 06:53:19;;;;;;;;;;;;;;;26.16;60.27;100553.28;5376044;32;34653;-82
2022/06/28 06:56:20;;;;;;;;;;;;;;;25.43;61.23;100558.78;5364616;32;32868;-66
2022/06/28 06:59:23;;;;;;;;;;;;;;;25.33;59.32;100558.84;5366458;32;34308;-65
2022/06/28 07:02:25;;;;;;;;;;;;;;;25.53;59.86;100566.81;5367016;32;34301;-71
2022/06/28 07:05:27;;;;;;;;;;;;;;;24.88;65.50;100539.13;5366721;32;35411;-76
2022/06/28 07:08:32;;;;;;;;;;;;;;;26.46;56.75;100547.44;5372894;32;34358;-70
2022/06/28 07:11:34;;;;;;;;;;;;;;;24.76;64.92;100535.75;5364165;32;34378;-77
2022/06/28 07:14:35;;;;;;;;;;;;;;;25.27;63.59;100537.94;5357304;32;34684;-68
2022/06/28 07:17:38;;;;;;;;;;;;;;;25.71;63.87;100516.53;5358864;32;46730;-70
2022/06/28 07:20:40;;;;;;;;;;;;;;;26.01;56.42;100485.66;5366911;32;34302;-72
2022/06/28 07:23:42;;;;;;;;;;;;;;;25.05;64.80;100461.22;5374133;32;34542;-74
2022/06/28 07:26:49;;;;;;;;;;;;;;;25.97;58.01;100462.75;5341513;32;850601;-75
2022/06/28 07:29:51;;;;;;;;;;;;;;;26.61;56.32;100479.50;5372953;32;35602;-76
2022/06/28 07:32:53;;;;;;;;;;;;;;;26.51;56.19;100494.94;5363538;32;32904;-69
2022/06/28 07:35:58;;;;;;;;;;;;;;;27.04;55.56;100491.94;5375282;32;35908;-70
2022/06/28 07:39:00;;;;;;;;;;;;;;;25.84;59.37;100500.84;5363479;32;35459;-72
2022/06/28 07:42:02;;;;;;;;;;;;;;;26.35;56.01;100504.59;5361849;32;35597;-70
2022/06/28 07:45:04;;;;;;;;;;;;;;;27.18;57.45;100531.84;5373459;32;35512;-71
2022/06/28 07:48:07;;;;;;;;;;;;;;;26.63;56.11;100539.47;5362013;32;34253;-73
2022/06/28 07:54:30;;;;;;;;;;;;;;;25.95;57.79;100539.28;5364176;32;34285;-70
2022/06/28 07:57:34;;;;;;;;;;;;;;;26.19;57.84;100540.34;5365247;32;35428;-68
2022/06/28 08:00:36;;;;;;;;;;;;;;;25.92;58.38;100549.37;5378578;32;35759;-76
2022/06/28 08:03:38;;;;;;;;;;;;;;;25.86;57.28;100541.91;5364654;32;44953;-72
2022/06/28 08:06:40;;;;;;;;;;;;;;;26.08;58.77;100575.63;5380914;32;35327;-73
2022/06/28 08:09:42;;;;;;;;;;;;;;;25.45;58.87;100589.09;5354124;32;34127;-75
2022/06/28 08:12:44;;;;;;;;;;;;;;;26.43;57.64;100588.19;5372561;32;34474;-63
2022/06/28 08:15:47;;;;;;;;;;;;;;;26.14;60.98;100593.81;5344580;32;34221;-67
2022/06/28 08:18:49;;;;;;;;;;;;;;;26.50;58.84;100591.12;5355138;32;34841;-73
2022/06/28 08:21:54;;;;;;;;;;;;;;;26.78;58.86;100585.56;5380655;32;35483;-73
2022/06/28 08:24:56;;;;;;;;;;;;;;;27.13;55.67;100590.84;5357131;32;33698;-69
2022/06/28 08:27:59;;;;;;;;;;;;;;;26.93;55.90;100597.44;5369952;32;34323;-72
2022/06/28 08:31:01;;;;;;;;;;;;;;;25.70;59.61;100595.59;5355767;32;34193;-68
2022/06/28 08:34:03;;;;;;;;;;;;;;;25.95;57.70;100591.28;5365587;32;34522;-71
2022/06/28 08:37:05;;;;;;;;;;;;;;;25.83;57.98;100590.72;5359916;32;34749;-68
2022/06/28 08:40:07;;;;;;;;;;;;;;;26.52;56.14;100607.13;5357033;32;44446;-68
2022/06/28 08:43:09;;;;;;;;;;;;;;;26.30;57.25;100608.44;5379080;32;35431;-72
2022/06/28 08:46:11;;;;;;;;;;;;;;;26.91;55.88;100612.91;5367029;32;35594;-79
2022/06/28 08:49:14;;;;;;;;;;;;;;;26.67;55.77;100616.34;5362307;32;35853;-74
2022/06/28 08:52:16;;;;;;;;;;;;;;;26.59;55.62;100613.56;5357551;32;34245;-71
2022/06/28 08:55:18;;;;;;;;;;;;;;;26.93;54.16;100616.31;5370066;32;34930;-74
2022/06/28 08:58:20;;;;;;;;;;;;;;;25.73;58.36;100626.75;5369450;32;34812;-69
2022/06/28 09:01:22;;;;;;;;;;;;;;;25.99;56.62;100613.37;5362708;32;34750;-69
2022/06/28 09:04:24;;;;;;;;;;;;;;;26.04;56.39;100624.56;5371170;32;35460;-68
2022/06/28 09:07:27;;;;;;;;;;;;;;;26.14;56.94;100625.31;5359707;32;34225;-77
2022/06/28 09:10:29;;;;;;;;;;;;;;;25.99;57.94;100624.16;5363412;32;34652;-77
2022/06/28 09:13:49;;;;;;;;;;;;;;;26.69;56.28;100625.09;5355452;32;35604;-72
2022/06/28 09:16:54;;;;;;;;;;;;;;;27.24;54.75;100638.25;5349633;32;36228;-70
2022/06/28 09:20:01;;;;;;;;;;;;;;;27.24;54.88;100643.63;5377456;32;34242;-78
2022/06/28 09:23:03;;;;;;;;;;;;;;;27.35;54.69;100642.50;5358725;32;35614;-77
2022/06/28 09:26:06;;;;;;;;;;;;;;;27.33;54.19;100636.44;5369837;32;35400;-73
2022/06/28 09:29:12;;;;;;;;;;;;;;;27.15;53.86;100636.53;5371608;32;46960;-76
2022/06/28 09:32:14;;;;;;;;;;;;;;;26.93;54.17;100632.50;5371951;32;34176;-73
2022/06/28 09:35:16;;;;;;;;;;;;;;;27.71;52.19;100633.22;5359725;32;34240;-71
2022/06/28 09:38:32;;;;;;;;;;;;;;;28.56;50.29;100631.13;5361259;32;35447;-77
2022/06/28 09:41:34;;;;;;;;;;;;;;;28.38;52.01;100632.31;5379305;32;35604;-76
2022/06/28 09:44:36;;;;;;;;;;;;;;;28.62;51.34;100628.75;5356865;32;35303;-72
2022/06/28 09:47:41;;;;;;;;;;;;;;;28.76;50.39;100634.28;5376451;32;44386;-79
2022/06/28 09:51:03;;;;;;;;;;;;;;;28.24;52.52;100639.22;5366601;32;35715;-76
2022/06/28 09:54:06;;;;;;;;;;;;;;;28.71;51.70;100635.81;5364441;32;32681;-72
2022/06/28 09:57:24;;;;;;;;;;;;;;;29.31;50.16;100628.09;5374121;32;34912;-72
2022/06/28 10:00:26;;;;;;;;;;;;;;;29.30;50.67;100633.66;5356045;32;36007;-68
2022/06/28 10:03:28;;;;;;;;;;;;;;;30.56;47.13;100628.78;5358523;32;35476;-68
2022/06/28 10:06:31;;;;;;;;;;;;;;;30.10;48.11;100633.44;5361656;32;32692;-70
2022/06/28 10:09:33;;;;;;;;;;;;;;;32.09;42.91;100637.16;5369190;32;34385;-71
2022/06/28 10:16:00;;;;;;;;;;;;;;;31.82;43.65;100630.59;5339729;32;34440;-73
2022/06/28 10:19:02;;;;;;;;;;;;;;;33.01;41.44;100625.34;5374426;32;34949;-74
2022/06/28 10:22:10;;;;;;;;;;;;;;;30.59;46.24;100628.44;5359205;32;34958;-73
2022/06/28 10:25:22;;;;;;;;;;;;;;;33.10;40.36;100624.13;5373848;32;44499;-75
2022/06/28 10:28:28;;;;;;;;;;;;;;;33.16;41.03;100607.00;5359159;32;34242;-77
2022/06/28 10:31:42;;;;;;;;;;;;;;;36.03;35.42;100611.03;5356344;32;34423;-73
2022/06/28 10:34:51;;;;;;;;;;;;;;;35.23;36.04;100615.19;5377996;32;35409;-73
2022/06/28 10:38:08;;;;;;;;;;;;;;;35.01;36.18;100611.91;5362251;32;34689;-70
2022/06/28 10:41:11;;;;;;;;;;;;;;;34.27;37.93;100606.72;5373603;32;44766;-68
2022/06/28 10:44:15;;;;;;;;;;;;;;;35.14;36.46;100605.56;5359557;32;34350;-75
2022/06/28 10:47:18;;;;;;;;;;;;;;;37.38;31.89;100596.69;5362251;32;34399;-77
2022/06/28 10:50:22;;;;;;;;;;;;;;;37.68;31.04;100596.72;5380868;32;35442;-71
2022/06/28 10:53:47;;;;;;;;;;;;;;;36.81;32.58;100587.84;5362386;32;34721;-73
2022/06/28 10:56:49;;;;;;;;;;;;;;;37.40;31.58;100589.91;5374372;32;34530;-72
2022/06/28 10:59:51;;;;;;;;;;;;;;;38.42;29.61;100575.31;5361415;32;34305;-73
2022/06/28 11:02:56;;;;;;;;;;;;;;;39.91;27.65;100580.06;5360553;32;34164;-73
2022/06/28 11:05:58;;;;;;;;;;;;;;;40.54;26.59;100577.00;5366108;32;34428;-72
2022/06/28 11:09:01;;;;;;;;;;;;;;;39.60;27.64;100573.19;5364189;32;35590;-72
2022/06/28 11:12:04;;;;;;;;;;;;;;;38.40;29.79;100572.81;5374213;32;34134;-83
2022/06/28 11:15:12;;;;;;;;;;;;;;;37.22;31.60;100570.72;5354321;32;34400;-87
2022/06/28 11:18:15;;;;;;;;;;;;;;;36.62;33.15;100576.03;5368071;32;44556;-72
2022/06/28 11:21:17;;;;;;;;;;;;;;;36.77;32.34;100564.69;5365569;32;34438;-72
2022/06/28 11:24:19;;;;;;;;;;;;;;;38.47;29.52;100548.81;5359487;32;34216;-78
2022/06/28 11:27:21;;;;;;;;;;;;;;;39.69;27.55;100556.03;5377400;32;34273;-70
2022/06/28 11:30:27;;;;;;;;;;;;;;;36.02;33.00;100554.66;5366008;32;34291;-78
2022/06/28 11:33:32;;;;;;;;;;;;;;;37.09;30.97;100552.53;5363098;32;34348;-69
2022/06/28 11:36:34;;;;;;;;;;;;;;;35.95;33.36;100553.06;5358631;32;34317;-70
2022/06/28 11:39:39;;;;;;;;;;;;;;;35.16;34.79;100555.13;5363184;32;34210;-81
2022/06/28 11:42:45;;;;;;;;;;;;;;;36.53;32.60;100539.09;5350763;32;44255;-77
2022/06/28 11:45:49;;;;;;;;;;;;;;;37.46;30.77;100538.81;5364576;32;34300;-74
2022/06/28 11:48:51;;;;;;;;;;;;;;;39.07;28.38;100533.91;5368868;32;35359;-82
2022/06/28 11:51:53;;;;;;;;;;;;;;;38.74;27.45;100526.34;5360263;32;35529;-77
2022/06/28 11:54:55;;;;;;;;;;;;;;;38.81;26.75;100526.22;5378221;32;34593;-88
2022/06/28 11:58:10;;;;;;;;;;;;;;;38.00;28.12;100528.72;5365176;32;36218;-76
2022/06/28 12:01:20;;;;;;;;;;;;;;;39.89;25.29;100514.28;5367809;32;44386;-78
2022/06/28 12:04:26;;;;;;;;;;;;;;;41.02;23.97;100500.22;5374969;32;34310;-82
2022/06/28 12:07:35;;;;;;;;;;;;;;;37.65;28.59;100523.97;5359425;32;35801;-72
2022/06/28 12:10:37;;;;;;;;;;;;;;;36.57;29.61;100504.69;5374171;32;44383;-76
2022/06/28 12:13:39;;;;;;;;;;;;;;;37.16;28.87;100500.41;5359418;32;35844;-73
2022/06/28 12:16:47;;;;;;;;;;;;;;;36.43;28.93;100506.75;5324712;32;36160;-75
2022/06/28 12:19:49;;;;;;;;;;;;;;;34.79;32.47;100506.75;5366787;32;34544;-73
2022/06/28 12:23:02;;;;;;;;;;;;;;;35.42;31.65;100505.00;5342355;32;34259;-75
2022/06/28 12:26:04;;;;;;;;;;;;;;;34.24;32.81;100493.41;5366007;32;32865;-71
2022/06/28 12:29:06;;;;;;;;;;;;;;;33.78;34.11;100488.78;5347316;32;34785;-70
2022/06/28 12:32:08;;;;;;;;;;;;;;;34.16;33.39;100497.19;5377738;32;46762;-72
2022/06/28 12:35:30;;;;;;;;;;;;;;;33.48;34.74;100479.31;5363966;32;34817;-77
2022/06/28 12:38:33;;;;;;;;;;;;;;;32.82;35.74;100491.63;5357395;32;34322;-73
2022/06/28 12:41:38;;;;;;;;;;;;;;;34.15;33.95;100486.50;5371153;32;44503;-74
2022/06/28 12:44:40;;;;;;;;;;;;;;;33.21;35.10;100494.75;5359999;32;35589;-74
2022/06/28 12:47:42;;;;;;;;;;;;;;;34.15;34.00;100484.63;5369424;32;34370;-81
2022/06/28 12:50:45;;;;;;;;;;;;;;;34.97;32.23;100479.59;5367558;32;34759;-73
2022/06/28 12:53:47;;;;;;;;;;;;;;;34.63;33.21;100483.47;5370228;32;34854;-73
2022/06/28 12:56:49;;;;;;;;;;;;;;;34.74;33.00;100472.72;5356243;32;35661;-85
2022/06/28 12:59:51;;;;;;;;;;;;;;;34.08;33.42;100481.06;5356862;32;34480;-80
2022/06/28 13:02:53;;;;;;;;;;;;;;;34.27;32.90;100467.59;5372924;32;34640;-74
2022/06/28 13:05:57;;;;;;;;;;;;;;;35.28;31.30;100456.94;5352452;32;37349;-71
2022/06/28 13:09:01;;;;;;;;;;;;;;;34.43;32.34;100459.81;5375104;32;34265;-77
2022/06/28 13:12:03;;;;;;;;;;;;;;;34.86;31.52;100461.97;5357923;32;34320;-78
2022/06/28 13:15:06;;;;;;;;;;;;;;;34.35;31.93;100454.56;5356130;32;34411;-72
2022/06/28 13:18:08;;;;;;;;;;;;;;;34.87;31.20;100460.91;5371887;32;44579;-72
2022/06/28 13:21:13;;;;;;;;;;;;;;;33.67;32.66;100440.34;5364454;32;36410;-80
2022/06/28 13:24:15;;;;;;;;;;;;;;;34.12;32.69;100441.38;5372214;32;34454;-80
2022/06/28 13:27:17;;;;;;;;;;;;;;;34.99;31.42;100440.09;5352292;32;34435;-72
2022/06/28 13:30:19;;;;;;;;;;;;;;;35.15;31.20;100437.91;5375830;32;35171;-72
2022/06/28 13:33:21;;;;;;;;;;;;;;;34.59;31.71;100433.97;5359230;32;35702;-78
2022/06/28 13:36:23;;;;;;;;;;;;;;;35.25;30.49;100430.06;5369056;32;34412;-69
2022/06/28 13:39:26;;;;;;;;;;;;;;;34.26;31.60;100430.44;5370978;32;34753;-78
2022/06/28 13:42:28;;;;;;;;;;;;;;;34.81;29.71;100415.38;5366033;32;34407;-78
2022/06/28 13:45:30;;;;;;;;;;;;;;;34.41;30.69;100409.22;5385953;32;35450;-87
2022/06/28 13:48:37;;;;;;;;;;;;;;;35.37;29.75;100422.84;5347852;32;34279;-83
2022/06/28 13:51:45;;;;;;;;;;;;;;;35.24;28.65;100417.47;5403710;32;44282;-80
2022/06/28 13:54:47;;;;;;;;;;;;;;;34.97;28.56;100419.50;5386371;32;34116;-76
2022/06/28 13:57:50;;;;;;;;;;;;;;;35.53;28.31;100416.84;5367522;32;35579;-79
2022/06/28 14:00:52;;;;;;;;;;;;;;;35.27;28.73;100406.09;5370460;32;35542;-86
2022/06/28 14:03:55;;;;;;;;;;;;;;;35.87;27.02;100402.87;5359458;32;35365;-83
2022/06/28 14:06:57;;;;;;;;;;;;;;;35.22;28.24;100409.47;5373476;32;34012;-85
2022/06/28 14:10:00;;;;;;;;;;;;;;;35.23;28.38;100404.84;5360817;32;35942;-81
2022/06/28 14:13:02;;;;;;;;;;;;;;;35.39;28.30;100398.03;5375738;32;34332;-77
2022/06/28 14:16:04;;;;;;;;;;;;;;;35.23;28.44;100392.06;5340206;32;34399;-83
2022/06/28 14:19:06;;;;;;;;;;;;;;;35.52;27.24;100382.38;5364787;32;32887;-83
2022/06/28 14:22:09;;;;;;;;;;;;;;;35.42;27.70;100386.66;5379055;32;44556;-84
2022/06/28 14:25:11;;;;;;;;;;;;;;;35.42;27.58;100381.19;5367190;32;35544;-83
2022/06/28 14:28:14;;;;;;;;;;;;;;;35.39;27.35;100385.19;5377602;32;36169;-76
2022/06/28 14:31:26;;;;;;;;;;;;;;;35.35;27.66;100383.94;5364875;32;34348;-83
2022/06/28 14:34:46;;;;;;;;;;;;;;;35.40;27.54;100375.94;5366764;32;44719;-85
2022/06/28 14:37:48;;;;;;;;;;;;;;;35.63;27.15;100360.84;5370852;32;35203;-83
2022/06/28 14:40:50;;;;;;;;;;;;;;;35.74;27.04;100360.09;5365299;32;34614;-85
2022/06/28 14:43:54;;;;;;;;;;;;;;;35.58;27.51;100363.41;5377880;32;35166;-75
2022/06/28 14:46:56;;;;;;;;;;;;;;;34.72;28.63;100351.19;5361470;32;35801;-77
2022/06/28 14:49:58;;;;;;;;;;;;;;;34.99;28.55;100357.34;5378008;32;34374;-76
2022/06/28 14:53:00;;;;;;;;;;;;;;;35.22;28.07;100352.09;5364782;32;33797;-78
2022/06/28 14:56:02;;;;;;;;;;;;;;;35.14;28.00;100355.13;5359802;32;34867;-82
2022/06/28 14:59:04;;;;;;;;;;;;;;;34.96;28.22;100344.12;5374611;32;35950;-76
2022/06/28 15:02:06;;;;;;;;;;;;;;;35.19;28.35;100355.31;5363008;32;34963;-85
2022/06/28 15:05:09;;;;;;;;;;;;;;;34.58;29.32;100353.13;5376544;32;45222;-77
2022/06/28 15:08:11;;;;;;;;;;;;;;;35.24;28.73;100338.25;5365786;32;35009;-77
2022/06/28 15:11:13;;;;;;;;;;;;;;;34.78;29.30;100343.97;5380657;32;35327;-75
2022/06/28 15:14:15;;;;;;;;;;;;;;;34.22;30.22;100342.78;5352960;32;35310;-76
2022/06/28 15:17:17;;;;;;;;;;;;;;;34.36;29.89;100344.38;5356363;32;35680;-76
2022/06/28 15:20:19;;;;;;;;;;;;;;;34.74;29.28;100341.72;5385134;32;34936;-76
2022/06/28 15:33:27;;;;;;;;;;;;;;;35.04;28.57;100332.94;5366445;32;34772;-85
2022/06/28 15:36:29;;;;;;;;;;;;;;;35.34;28.12;100335.84;5383459;32;35282;-75
2022/06/28 15:39:31;;;;;;;;;;;;;;;34.45;29.30;100343.09;5372593;32;34267;-77
2022/06/28 15:42:34;;;;;;;;;;;;;;;35.05;28.58;100328.31;5377377;32;35074;-77
2022/06/28 15:45:35;;;;;;;;;;;;;;;34.82;28.55;100331.59;5364177;32;34800;-84
2022/06/28 15:48:38;;;;;;;;;;;;;;;34.27;29.66;100328.50;5383819;32;43251;-76
2022/06/28 15:51:40;;;;;;;;;;;;;;;35.25;28.43;100315.34;5365093;32;35077;-87
2022/06/28 15:54:42;;;;;;;;;;;;;;;34.68;28.84;100328.94;5371190;32;34993;-78
2022/06/28 15:57:44;;;;;;;;;;;;;;;34.61;29.25;100333.59;5379316;32;35652;-85
2022/06/28 16:00:46;;;;;;;;;;;;;;;34.89;29.34;100325.00;5367134;32;34754;-83